Republican, Arkansas
Current Conditions -  °F | °C
As of 8:58 PM on Saturday 25 Oct 2014 (Local Time) from KLRF Reporting Station
Clear Clear  
Wind Chill: 64°   Ceiling: Unl
Heat Index: 64°   Visibility: 10mi
Dew Point: 61°   Wind: 1mph
Humidity: 90%   Direction: 70°ENE
Pressure: 30.03"   Gusts: NA
Location:  35.2494°N, 92.313°W
Report Text: KLRF 260158Z AUTO 07001KT 10SM CLR 18/16 A3003 RMK AO2 SLP171 T01760159
Loading
Personal Weather Stations






























Interactive Weather Map
Tropical Storm Tracking
New forecast layout! Learn more

10-Day Weather Forecast

Advertisements
Track Severe Weather on mobile